sensor_id;sensor_type;location;lat;lon;timestamp;pressure;altitude;pressure_sealevel;temperature;humidity
31044;BME280;17710;52.520;13.352;2023-06-22T00:02:21;101536.72;;;26.92;50.27
31044;BME280;17710;52.520;13.352;2023-06-22T00:04:47;101543.44;;;27.07;49.75
31044;BME280;17710;52.520;13.352;2023-06-22T00:07:14;101539.59;;;27.19;49.87
31044;BME280;17710;52.520;13.352;2023-06-22T00:09:40;101543.75;;;27.23;49.70
31044;BME280;17710;52.520;13.352;2023-06-22T00:12:08;101540.44;;;27.01;50.30
31044;BME280;17710;52.520;13.352;2023-06-22T00:14:34;101540.59;;;27.09;50.19
31044;BME280;17710;52.520;13.352;2023-06-22T00:17:01;101544.56;;;26.95;50.19
31044;BME280;17710;52.520;13.352;2023-06-22T00:19:27;101547.03;;;27.17;50.03
31044;BME280;17710;52.520;13.352;2023-06-22T00:21:54;101549.59;;;27.09;49.67
31044;BME280;17710;52.520;13.352;2023-06-22T00:24:21;101560.59;;;27.17;49.86
31044;BME280;17710;52.520;13.352;2023-06-22T00:26:48;101564.41;;;27.05;50.32
31044;BME280;17710;52.520;13.352;2023-06-22T00:29:16;101561.44;;;27.18;49.96
31044;BME280;17710;52.520;13.352;2023-06-22T00:31:43;101565.03;;;27.28;49.99
31044;BME280;17710;52.520;13.352;2023-06-22T00:34:10;101552.16;;;27.20;49.41
31044;BME280;17710;52.520;13.352;2023-06-22T00:36:36;101561.13;;;27.11;49.43
31044;BME280;17710;52.520;13.352;2023-06-22T00:39:06;101557.88;;;27.27;49.30
31044;BME280;17710;52.520;13.352;2023-06-22T00:41:32;101559.28;;;27.12;49.68
31044;BME280;17710;52.520;13.352;2023-06-22T00:43:59;101560.28;;;27.01;50.18
31044;BME280;17710;52.520;13.352;2023-06-22T00:46:27;101560.97;;;26.93;50.25
31044;BME280;17710;52.520;13.352;2023-06-22T00:48:54;101561.00;;;27.13;50.15
31044;BME280;17710;52.520;13.352;2023-06-22T00:51:22;101561.72;;;26.95;50.37
31044;BME280;17710;52.520;13.352;2023-06-22T00:53:49;101569.84;;;26.95;50.26
31044;BME280;17710;52.520;13.352;2023-06-22T00:56:16;101567.44;;;27.12;49.92
31044;BME280;17710;52.520;13.352;2023-06-22T00:58:44;101572.84;;;27.12;49.82
31044;BME280;17710;52.520;13.352;2023-06-22T01:01:12;101563.16;;;27.09;50.33
31044;BME280;17710;52.520;13.352;2023-06-22T01:03:40;101566.28;;;27.05;50.01
31044;BME280;17710;52.520;13.352;2023-06-22T01:06:08;101564.72;;;27.02;50.06
31044;BME280;17710;52.520;13.352;2023-06-22T01:08:41;101565.94;;;26.88;50.46
31044;BME280;17710;52.520;13.352;2023-06-22T01:11:12;101574.97;;;26.89;50.30
31044;BME280;17710;52.520;13.352;2023-06-22T01:13:46;101568.78;;;26.87;50.48
31044;BME280;17710;52.520;13.352;2023-06-22T01:16:20;101576.13;;;26.96;50.55
31044;BME280;17710;52.520;13.352;2023-06-22T01:18:53;101576.94;;;26.87;50.82
31044;BME280;17710;52.520;13.352;2023-06-22T01:21:22;101584.28;;;26.66;51.34
31044;BME280;17710;52.520;13.352;2023-06-22T01:23:56;101580.00;;;26.63;51.73
31044;BME280;17710;52.520;13.352;2023-06-22T01:26:29;101572.16;;;26.60;51.99
31044;BME280;17710;52.520;13.352;2023-06-22T01:29:04;101574.91;;;26.79;51.79
31044;BME280;17710;52.520;13.352;2023-06-22T01:31:33;101573.97;;;26.50;52.40
31044;BME280;17710;52.520;13.352;2023-06-22T01:34:02;101578.13;;;26.54;52.40
31044;BME280;17710;52.520;13.352;2023-06-22T01:36:30;101581.00;;;26.72;51.86
31044;BME280;17710;52.520;13.352;2023-06-22T01:38:57;101580.31;;;26.70;51.90
31044;BME280;17710;52.520;13.352;2023-06-22T01:41:26;101585.38;;;26.53;52.12
31044;BME280;17710;52.520;13.352;2023-06-22T01:43:55;101594.13;;;26.67;51.79
31044;BME280;17710;52.520;13.352;2023-06-22T01:46:23;101594.25;;;26.55;52.39
31044;BME280;17710;52.520;13.352;2023-06-22T01:48:50;101593.59;;;26.73;51.62
31044;BME280;17710;52.520;13.352;2023-06-22T01:51:17;101593.44;;;26.65;51.97
31044;BME280;17710;52.520;13.352;2023-06-22T01:53:43;101592.28;;;26.57;52.14
31044;BME280;17710;52.520;13.352;2023-06-22T01:56:11;101589.81;;;26.54;52.69
31044;BME280;17710;52.520;13.352;2023-06-22T01:58:46;101598.91;;;26.44;52.55
31044;BME280;17710;52.520;13.352;2023-06-22T02:01:15;101594.34;;;26.44;52.77
31044;BME280;17710;52.520;13.352;2023-06-22T02:03:55;101593.63;;;26.42;52.60
31044;BME280;17710;52.520;13.352;2023-06-22T02:06:25;101587.84;;;26.56;52.49
31044;BME280;17710;52.520;13.352;2023-06-22T02:08:57;101592.91;;;26.40;53.25
31044;BME280;17710;52.520;13.352;2023-06-22T02:11:26;101588.69;;;26.57;52.67
31044;BME280;17710;52.520;13.352;2023-06-22T02:13:55;101588.28;;;26.62;52.46
31044;BME280;17710;52.520;13.352;2023-06-22T02:16:22;101593.13;;;26.58;52.61
31044;BME280;17710;52.520;13.352;2023-06-22T02:18:51;101593.56;;;26.63;52.80
31044;BME280;17710;52.520;13.352;2023-06-22T02:21:17;101609.47;;;26.47;53.54
31044;BME280;17710;52.520;13.352;2023-06-22T02:23:44;101607.66;;;26.27;54.08
31044;BME280;17710;52.520;13.352;2023-06-22T02:26:11;101606.13;;;26.34;54.10
31044;BME280;17710;52.520;13.352;2023-06-22T02:28:38;101615.78;;;26.27;54.44
31044;BME280;17710;52.520;13.352;2023-06-22T02:31:04;101616.28;;;26.41;54.53
31044;BME280;17710;52.520;13.352;2023-06-22T02:33:30;101613.34;;;26.24;55.30
31044;BME280;17710;52.520;13.352;2023-06-22T02:35:58;101619.41;;;26.16;55.30
31044;BME280;17710;52.520;13.352;2023-06-22T02:38:25;101602.31;;;26.46;54.84
31044;BME280;17710;52.520;13.352;2023-06-22T02:40:51;101607.53;;;26.28;55.53
31044;BME280;17710;52.520;13.352;2023-06-22T02:43:17;101607.53;;;26.28;55.74
31044;BME280;17710;52.520;13.352;2023-06-22T02:45:44;101605.59;;;26.40;55.39
31044;BME280;17710;52.520;13.352;2023-06-22T02:48:10;101614.25;;;26.34;55.29
31044;BME280;17710;52.520;13.352;2023-06-22T02:50:37;101607.56;;;26.68;53.99
31044;BME280;17710;52.520;13.352;2023-06-22T02:53:05;101608.72;;;26.75;53.77
31044;BME280;17710;52.520;13.352;2023-06-22T02:55:31;101609.41;;;26.68;53.73
31044;BME280;17710;52.520;13.352;2023-06-22T02:57:57;101611.16;;;26.78;53.65
31044;BME280;17710;52.520;13.352;2023-06-22T03:00:25;101609.59;;;26.85;53.31
31044;BME280;17710;52.520;13.352;2023-06-22T03:02:56;101614.50;;;26.91;53.39
31044;BME280;17710;52.520;13.352;2023-06-22T03:05:22;101604.50;;;26.92;53.07
31044;BME280;17710;52.520;13.352;2023-06-22T03:07:49;101602.09;;;26.89;53.18
31044;BME280;17710;52.520;13.352;2023-06-22T03:10:17;101608.72;;;26.75;53.74
31044;BME280;17710;52.520;13.352;2023-06-22T03:12:43;101611.09;;;26.99;52.73
31044;BME280;17710;52.520;13.352;2023-06-22T03:15:11;101610.66;;;26.94;52.92
31044;BME280;17710;52.520;13.352;2023-06-22T03:17:38;101601.66;;;26.93;52.77
31044;BME280;17710;52.520;13.352;2023-06-22T03:20:07;101602.81;;;26.91;52.85
31044;BME280;17710;52.520;13.352;2023-06-22T03:22:35;101603.66;;;26.91;52.74
31044;BME280;17710;52.520;13.352;2023-06-22T03:25:03;101596.41;;;27.02;52.73
31044;BME280;17710;52.520;13.352;2023-06-22T03:27:30;101602.53;;;26.94;52.98
31044;BME280;17710;52.520;13.352;2023-06-22T03:29:57;101598.94;;;26.93;52.62
31044;BME280;17710;52.520;13.352;2023-06-22T03:32:23;101605.25;;;26.94;52.49
31044;BME280;17710;52.520;13.352;2023-06-22T03:34:53;101603.38;;;26.94;52.25
31044;BME280;17710;52.520;13.352;2023-06-22T03:37:19;101611.59;;;26.83;52.39
31044;BME280;17710;52.520;13.352;2023-06-22T03:39:45;101610.47;;;26.86;52.32
31044;BME280;17710;52.520;13.352;2023-06-22T03:42:12;101606.63;;;26.88;52.50
31044;BME280;17710;52.520;13.352;2023-06-22T03:44:40;101601.97;;;27.00;52.30
31044;BME280;17710;52.520;13.352;2023-06-22T03:47:06;101600.53;;;26.96;52.07
31044;BME280;17710;52.520;13.352;2023-06-22T03:49:33;101593.81;;;27.00;51.76
31044;BME280;17710;52.520;13.352;2023-06-22T03:52:00;101594.13;;;27.07;51.55
31044;BME280;17710;52.520;13.352;2023-06-22T03:54:28;101600.59;;;26.85;51.23
31044;BME280;17710;52.520;13.352;2023-06-22T03:56:55;101605.53;;;27.01;51.24
31044;BME280;17710;52.520;13.352;2023-06-22T03:59:22;101602.25;;;26.97;50.80
31044;BME280;17710;52.520;13.352;2023-06-22T04:01:49;101601.75;;;26.82;51.57
31044;BME280;17710;52.520;13.352;2023-06-22T04:04:17;101609.94;;;26.92;51.06
31044;BME280;17710;52.520;13.352;2023-06-22T04:06:44;101608.94;;;26.93;50.54
31044;BME280;17710;52.520;13.352;2023-06-22T04:09:10;101613.25;;;27.05;50.38
31044;BME280;17710;52.520;13.352;2023-06-22T04:11:37;101612.84;;;27.10;49.65
31044;BME280;17710;52.520;13.352;2023-06-22T04:14:03;101613.97;;;27.07;49.45
31044;BME280;17710;52.520;13.352;2023-06-22T04:16:30;101611.25;;;27.07;48.83
31044;BME280;17710;52.520;13.352;2023-06-22T04:18:57;101616.81;;;26.96;48.81
31044;BME280;17710;52.520;13.352;2023-06-22T04:21:24;101612.69;;;27.11;49.02
31044;BME280;17710;52.520;13.352;2023-06-22T04:23:50;101617.97;;;27.03;48.90
31044;BME280;17710;52.520;13.352;2023-06-22T04:26:16;101621.81;;;27.01;49.34
31044;BME280;17710;52.520;13.352;2023-06-22T04:28:46;101622.28;;;27.15;48.81
31044;BME280;17710;52.520;13.352;2023-06-22T04:31:17;101631.72;;;27.30;48.50
31044;BME280;17710;52.520;13.352;2023-06-22T04:33:43;101636.13;;;27.51;47.63
31044;BME280;17710;52.520;13.352;2023-06-22T04:36:11;101634.47;;;27.69;47.20
31044;BME280;17710;52.520;13.352;2023-06-22T04:38:38;101633.44;;;27.70;47.19
31044;BME280;17710;52.520;13.352;2023-06-22T04:41:05;101638.47;;;27.65;46.49
31044;BME280;17710;52.520;13.352;2023-06-22T04:43:33;101637.44;;;27.85;45.55
31044;BME280;17710;52.520;13.352;2023-06-22T04:46:00;101645.44;;;27.48;46.42
31044;BME280;17710;52.520;13.352;2023-06-22T05:05:00;101649.06;;;28.53;42.62
31044;BME280;17710;52.520;13.352;2023-06-22T05:07:32;101637.06;;;28.83;41.49
31044;BME280;17710;52.520;13.352;2023-06-22T05:09:58;101640.97;;;28.80;41.42
31044;BME280;17710;52.520;13.352;2023-06-22T05:12:25;101635.19;;;28.83;40.92
31044;BME280;17710;52.520;13.352;2023-06-22T05:14:51;101638.88;;;28.92;40.53
31044;BME280;17710;52.520;13.352;2023-06-22T05:17:18;101636.91;;;28.84;40.75
31044;BME280;17710;52.520;13.352;2023-06-22T05:19:45;101642.50;;;28.83;40.61
31044;BME280;17710;52.520;13.352;2023-06-22T05:22:15;101643.19;;;28.95;40.45
31044;BME280;17710;52.520;13.352;2023-06-22T05:24:41;101636.69;;;28.96;40.19
31044;BME280;17710;52.520;13.352;2023-06-22T05:27:08;101644.97;;;28.76;40.62
31044;BME280;17710;52.520;13.352;2023-06-22T05:29:35;101645.41;;;28.62;40.77
31044;BME280;17710;52.520;13.352;2023-06-22T05:32:01;101649.13;;;28.80;40.60
31044;BME280;17710;52.520;13.352;2023-06-22T05:34:28;101642.41;;;28.65;40.37
31044;BME280;17710;52.520;13.352;2023-06-22T05:36:54;101641.81;;;28.71;40.26
31044;BME280;17710;52.520;13.352;2023-06-22T05:39:22;101643.56;;;28.63;39.91
31044;BME280;17710;52.520;13.352;2023-06-22T05:41:48;101643.75;;;28.61;40.33
31044;BME280;17710;52.520;13.352;2023-06-22T05:44:15;101659.00;;;28.62;40.02
31044;BME280;17710;52.520;13.352;2023-06-22T05:46:43;101658.47;;;28.96;39.42
31044;BME280;17710;52.520;13.352;2023-06-22T05:49:12;101660.03;;;28.98;39.19
31044;BME280;17710;52.520;13.352;2023-06-22T05:51:38;101673.63;;;29.25;38.55
31044;BME280;17710;52.520;13.352;2023-06-22T05:54:05;101678.34;;;29.68;38.14
31044;BME280;17710;52.520;13.352;2023-06-22T05:56:32;101676.94;;;29.82;37.91
31044;BME280;17710;52.520;13.352;2023-06-22T05:58:59;101676.19;;;29.72;37.17
31044;BME280;17710;52.520;13.352;2023-06-22T06:01:25;101676.72;;;29.58;37.81
31044;BME280;17710;52.520;13.352;2023-06-22T06:03:52;101681.16;;;29.14;38.61
31044;BME280;17710;52.520;13.352;2023-06-22T06:06:18;101670.38;;;28.95;39.64
31044;BME280;17710;52.520;13.352;2023-06-22T06:08:46;101668.03;;;29.27;39.73
31044;BME280;17710;52.520;13.352;2023-06-22T06:11:12;101666.63;;;28.96;39.87
31044;BME280;17710;52.520;13.352;2023-06-22T06:13:40;101672.97;;;29.41;39.42
31044;BME280;17710;52.520;13.352;2023-06-22T06:16:06;101664.25;;;29.10;39.51
31044;BME280;17710;52.520;13.352;2023-06-22T06:18:33;101660.38;;;29.40;39.06
31044;BME280;17710;52.520;13.352;2023-06-22T06:20:59;101662.00;;;29.51;38.77
31044;BME280;17710;52.520;13.352;2023-06-22T06:23:25;101659.31;;;29.23;38.25
31044;BME280;17710;52.520;13.352;2023-06-22T06:25:52;101653.69;;;29.52;37.71
31044;BME280;17710;52.520;13.352;2023-06-22T06:28:18;101656.72;;;29.49;37.63
31044;BME280;17710;52.520;13.352;2023-06-22T06:30:46;101668.41;;;29.59;37.64
31044;BME280;17710;52.520;13.352;2023-06-22T06:33:12;101664.50;;;29.62;37.50
31044;BME280;17710;52.520;13.352;2023-06-22T06:35:39;101671.75;;;29.53;37.76
31044;BME280;17710;52.520;13.352;2023-06-22T06:38:05;101672.03;;;29.50;37.59
31044;BME280;17710;52.520;13.352;2023-06-22T06:40:31;101682.16;;;29.40;37.31
31044;BME280;17710;52.520;13.352;2023-06-22T06:42:58;101681.75;;;29.88;37.00
31044;BME280;17710;52.520;13.352;2023-06-22T06:45:24;101676.28;;;30.24;36.00
31044;BME280;17710;52.520;13.352;2023-06-22T06:47:54;101676.22;;;30.41;35.54
31044;BME280;17710;52.520;13.352;2023-06-22T06:50:21;101671.13;;;30.46;35.39
31044;BME280;17710;52.520;13.352;2023-06-22T06:52:47;101668.19;;;31.00;34.90
31044;BME280;17710;52.520;13.352;2023-06-22T06:55:15;101662.25;;;31.04;34.42
31044;BME280;17710;52.520;13.352;2023-06-22T06:57:42;101655.66;;;31.15;33.81
31044;BME280;17710;52.520;13.352;2023-06-22T07:00:10;101658.38;;;31.15;33.67
31044;BME280;17710;52.520;13.352;2023-06-22T07:02:39;101655.88;;;31.38;33.78
31044;BME280;17710;52.520;13.352;2023-06-22T07:05:08;101655.78;;;31.63;33.11
31044;BME280;17710;52.520;13.352;2023-06-22T07:07:35;101650.44;;;31.46;33.28
31044;BME280;17710;52.520;13.352;2023-06-22T07:10:02;101643.84;;;31.81;32.81
31044;BME280;17710;52.520;13.352;2023-06-22T07:12:29;101637.16;;;31.99;31.26
31044;BME280;17710;52.520;13.352;2023-06-22T07:15:01;101639.88;;;32.08;31.50
31044;BME280;17710;52.520;13.352;2023-06-22T07:17:28;101628.59;;;32.11;30.97
31044;BME280;17710;52.520;13.352;2023-06-22T07:19:54;101633.06;;;32.28;31.00
31044;BME280;17710;52.520;13.352;2023-06-22T07:22:22;101629.13;;;32.06;31.01
31044;BME280;17710;52.520;13.352;2023-06-22T07:24:49;101633.06;;;31.95;30.95
31044;BME280;17710;52.520;13.352;2023-06-22T07:27:15;101628.28;;;31.65;31.08
31044;BME280;17710;52.520;13.352;2023-06-22T07:29:44;101622.47;;;31.84;31.43
31044;BME280;17710;52.520;13.352;2023-06-22T07:32:10;101631.34;;;31.94;31.48
31044;BME280;17710;52.520;13.352;2023-06-22T07:34:37;101615.66;;;31.80;31.56
31044;BME280;17710;52.520;13.352;2023-06-22T07:37:04;101617.69;;;32.02;31.07
31044;BME280;17710;52.520;13.352;2023-06-22T07:39:32;101617.44;;;32.44;29.53
31044;BME280;17710;52.520;13.352;2023-06-22T07:41:58;101622.72;;;32.54;29.49
31044;BME280;17710;52.520;13.352;2023-06-22T07:44:24;101622.03;;;32.44;29.61
31044;BME280;17710;52.520;13.352;2023-06-22T07:46:51;101616.63;;;32.28;29.33
31044;BME280;17710;52.520;13.352;2023-06-22T07:49:17;101619.38;;;32.12;29.34
31044;BME280;17710;52.520;13.352;2023-06-22T07:51:44;101625.97;;;32.50;28.34
31044;BME280;17710;52.520;13.352;2023-06-22T07:54:10;101618.91;;;32.71;27.38
31044;BME280;17710;52.520;13.352;2023-06-22T07:56:38;101613.09;;;32.74;27.41
31044;BME280;17710;52.520;13.352;2023-06-22T07:59:04;101618.13;;;32.94;27.13
31044;BME280;17710;52.520;13.352;2023-06-22T08:01:31;101609.91;;;32.55;27.52
31044;BME280;17710;52.520;13.352;2023-06-22T08:03:57;101608.41;;;32.36;28.29
31044;BME280;17710;52.520;13.352;2023-06-22T08:06:23;101615.72;;;32.43;28.31
31044;BME280;17710;52.520;13.352;2023-06-22T08:08:50;101607.94;;;32.63;27.83
31044;BME280;17710;52.520;13.352;2023-06-22T08:11:19;101615.00;;;32.50;27.60
31044;BME280;17710;52.520;13.352;2023-06-22T08:13:48;101605.69;;;32.36;27.46
31044;BME280;17710;52.520;13.352;2023-06-22T08:16:15;101611.09;;;32.52;27.59
31044;BME280;17710;52.520;13.352;2023-06-22T08:18:41;101610.53;;;32.57;27.72
31044;BME280;17710;52.520;13.352;2023-06-22T08:21:07;101614.06;;;32.26;28.56
31044;BME280;17710;52.520;13.352;2023-06-22T08:23:34;101616.13;;;32.24;28.63
31044;BME280;17710;52.520;13.352;2023-06-22T08:26:01;101621.09;;;32.21;28.59
31044;BME280;17710;52.520;13.352;2023-06-22T08:28:27;101613.25;;;32.01;27.83
31044;BME280;17710;52.520;13.352;2023-06-22T08:30:55;101608.97;;;31.99;28.10
31044;BME280;17710;52.520;13.352;2023-06-22T08:33:21;101622.97;;;32.28;28.11
31044;BME280;17710;52.520;13.352;2023-06-22T08:35:53;101620.34;;;32.43;28.04
31044;BME280;17710;52.520;13.352;2023-06-22T08:38:20;101616.38;;;32.54;27.06
31044;BME280;17710;52.520;13.352;2023-06-22T08:40:46;101609.06;;;32.46;27.39
31044;BME280;17710;52.520;13.352;2023-06-22T08:43:12;101608.19;;;32.93;26.82
31044;BME280;17710;52.520;13.352;2023-06-22T08:45:39;101602.88;;;32.52;26.98
31044;BME280;17710;52.520;13.352;2023-06-22T08:48:06;101615.78;;;32.35;27.37
31044;BME280;17710;52.520;13.352;2023-06-22T08:50:33;101611.59;;;32.56;27.08
31044;BME280;17710;52.520;13.352;2023-06-22T08:52:59;101618.13;;;32.47;27.65
31044;BME280;17710;52.520;13.352;2023-06-22T08:55:25;101612.66;;;32.47;27.56
31044;BME280;17710;52.520;13.352;2023-06-22T08:57:52;101611.59;;;32.56;27.40
31044;BME280;17710;52.520;13.352;2023-06-22T09:00:19;101607.94;;;32.63;27.19
31044;BME280;17710;52.520;13.352;2023-06-22T09:02:46;101606.81;;;32.50;27.46
31044;BME280;17710;52.520;13.352;2023-06-22T09:05:14;101606.19;;;32.87;27.34
31044;BME280;17710;52.520;13.352;2023-06-22T09:07:41;101612.06;;;33.06;26.81
31044;BME280;17710;52.520;13.352;2023-06-22T09:10:08;101608.28;;;33.38;26.76
31044;BME280;17710;52.520;13.352;2023-06-22T09:12:35;101599.22;;;33.38;27.49
31044;BME280;17710;52.520;13.352;2023-06-22T09:15:03;101600.63;;;33.79;27.16
31044;BME280;17710;52.520;13.352;2023-06-22T09:17:32;101608.28;;;33.84;26.89
31044;BME280;17710;52.520;13.352;2023-06-22T09:19:59;101603.75;;;33.91;27.04
31044;BME280;17710;52.520;13.352;2023-06-22T09:22:27;101600.00;;;33.46;27.15
31044;BME280;17710;52.520;13.352;2023-06-22T09:24:54;101602.00;;;33.52;27.12
31044;BME280;17710;52.520;13.352;2023-06-22T09:27:21;101602.56;;;33.25;26.96
31044;BME280;17710;52.520;13.352;2023-06-22T09:29:47;101589.22;;;33.45;26.86
31044;BME280;17710;52.520;13.352;2023-06-22T09:32:13;101601.38;;;33.42;27.00
31044;BME280;17710;52.520;13.352;2023-06-22T09:34:40;101598.41;;;33.52;26.80
31044;BME280;17710;52.520;13.352;2023-06-22T09:37:06;101593.00;;;33.21;26.63
31044;BME280;17710;52.520;13.352;2023-06-22T09:39:34;101587.41;;;33.37;26.33
31044;BME280;17710;52.520;13.352;2023-06-22T09:42:01;101577.41;;;33.44;26.57
31044;BME280;17710;52.520;13.352;2023-06-22T09:44:27;101575.41;;;33.38;26.89
31044;BME280;17710;52.520;13.352;2023-06-22T09:46:54;101579.97;;;33.15;26.51
31044;BME280;17710;52.520;13.352;2023-06-22T09:49:20;101579.84;;;32.86;27.58
31044;BME280;17710;52.520;13.352;2023-06-22T09:51:46;101575.63;;;32.28;27.76
31044;BME280;17710;52.520;13.352;2023-06-22T09:54:14;101573.44;;;33.01;27.60
31044;BME280;17710;52.520;13.352;2023-06-22T09:56:42;101579.94;;;33.00;27.40
31044;BME280;17710;52.520;13.352;2023-06-22T09:59:08;101587.28;;;33.00;27.42
31044;BME280;17710;52.520;13.352;2023-06-22T10:01:35;101591.91;;;32.99;27.10
31044;BME280;17710;52.520;13.352;2023-06-22T10:04:02;101586.75;;;32.73;26.84
31044;BME280;17710;52.520;13.352;2023-06-22T10:06:28;101593.59;;;32.69;27.42
31044;BME280;17710;52.520;13.352;2023-06-22T10:08:55;101588.94;;;33.09;27.27
31044;BME280;17710;52.520;13.352;2023-06-22T10:11:21;101583.38;;;33.25;27.67
31044;BME280;17710;52.520;13.352;2023-06-22T10:13:53;101581.03;;;32.83;28.74
31044;BME280;17710;52.520;13.352;2023-06-22T10:16:19;101582.69;;;32.61;28.08
31044;BME280;17710;52.520;13.352;2023-06-22T10:18:46;101577.69;;;32.73;28.53
31044;BME280;17710;52.520;13.352;2023-06-22T10:21:12;101578.81;;;33.09;28.64
31044;BME280;17710;52.520;13.352;2023-06-22T10:23:39;101575.72;;;33.20;28.13
31044;BME280;17710;52.520;13.352;2023-06-22T10:26:05;101574.88;;;33.20;28.15
31044;BME280;17710;52.520;13.352;2023-06-22T10:28:31;101569.19;;;33.21;28.21
31044;BME280;17710;52.520;13.352;2023-06-22T10:30:59;101563.31;;;33.33;27.86
31044;BME280;17710;52.520;13.352;2023-06-22T10:33:25;101566.22;;;33.31;28.55
31044;BME280;17710;52.520;13.352;2023-06-22T10:35:52;101567.94;;;33.70;27.38
31044;BME280;17710;52.520;13.352;2023-06-22T10:38:18;101561.31;;;33.87;27.46
31044;BME280;17710;52.520;13.352;2023-06-22T10:40:45;101564.91;;;33.65;27.45
31044;BME280;17710;52.520;13.352;2023-06-22T10:43:12;101566.69;;;33.57;27.87
31044;BME280;17710;52.520;13.352;2023-06-22T10:45:38;101565.47;;;33.60;27.03
31044;BME280;17710;52.520;13.352;2023-06-22T10:48:06;101552.50;;;33.77;27.90
31044;BME280;17710;52.520;13.352;2023-06-22T10:50:32;101547.75;;;33.71;27.20
31044;BME280;17710;52.520;13.352;2023-06-22T10:52:58;101546.94;;;33.62;27.40
31044;BME280;17710;52.520;13.352;2023-06-22T10:55:25;101545.47;;;33.37;28.41
31044;BME280;17710;52.520;13.352;2023-06-22T10:57:51;101534.16;;;33.09;28.65
31044;BME280;17710;52.520;13.352;2023-06-22T11:00:18;101536.84;;;33.17;28.92
31044;BME280;17710;52.520;13.352;2023-06-22T11:02:44;101536.84;;;33.17;29.30
31044;BME280;17710;52.520;13.352;2023-06-22T11:05:12;101530.84;;;33.44;28.48
31044;BME280;17710;52.520;13.352;2023-06-22T11:07:41;101523.09;;;33.71;27.83
31044;BME280;17710;52.520;13.352;2023-06-22T11:10:09;101518.47;;;33.71;27.76
31044;BME280;17710;52.520;13.352;2023-06-22T11:12:35;101527.94;;;33.46;28.09
31044;BME280;17710;52.520;13.352;2023-06-22T11:15:02;101532.88;;;32.97;28.18
31044;BME280;17710;52.520;13.352;2023-06-22T11:17:28;101536.88;;;33.40;27.59
31044;BME280;17710;52.520;13.352;2023-06-22T11:19:54;101529.84;;;33.60;28.01
31044;BME280;17710;52.520;13.352;2023-06-22T11:22:22;101524.41;;;33.75;27.04
31044;BME280;17710;52.520;13.352;2023-06-22T11:24:48;101513.56;;;34.40;26.90
31044;BME280;17710;52.520;13.352;2023-06-22T11:27:15;101505.03;;;34.50;25.78
31044;BME280;17710;52.520;13.352;2023-06-22T11:29:41;101501.94;;;34.53;25.70
31044;BME280;17710;52.520;13.352;2023-06-22T11:32:08;101504.72;;;34.74;25.40
31044;BME280;17710;52.520;13.352;2023-06-22T11:34:34;101505.34;;;34.91;25.22
31044;BME280;17710;52.520;13.352;2023-06-22T11:37:01;101502.38;;;34.92;25.07
31044;BME280;17710;52.520;13.352;2023-06-22T11:39:29;101500.31;;;34.58;25.16
31044;BME280;17710;52.520;13.352;2023-06-22T11:41:55;101496.66;;;34.36;25.66
31044;BME280;17710;52.520;13.352;2023-06-22T11:44:21;101502.91;;;34.30;25.94
31044;BME280;17710;52.520;13.352;2023-06-22T11:46:48;101501.84;;;34.46;25.94
31044;BME280;17710;52.520;13.352;2023-06-22T11:49:14;101498.75;;;34.70;26.23
31044;BME280;17710;52.520;13.352;2023-06-22T11:51:40;101500.91;;;34.39;25.41
31044;BME280;17710;52.520;13.352;2023-06-22T11:54:07;101505.91;;;34.50;25.72
31044;BME280;17710;52.520;13.352;2023-06-22T11:56:34;101517.91;;;34.34;25.88
31044;BME280;17710;52.520;13.352;2023-06-22T11:59:01;101513.88;;;34.30;25.94
31044;BME280;17710;52.520;13.352;2023-06-22T12:01:27;101510.91;;;34.47;25.99
31044;BME280;17710;52.520;13.352;2023-06-22T12:03:53;101505.31;;;34.40;25.46
31044;BME280;17710;52.520;13.352;2023-06-22T12:06:20;101499.56;;;34.35;25.70
31044;BME280;17710;52.520;13.352;2023-06-22T12:08:46;101498.81;;;33.97;25.77
31044;BME280;17710;52.520;13.352;2023-06-22T12:11:12;101492.09;;;34.44;25.49
31044;BME280;17710;52.520;13.352;2023-06-22T12:13:40;101490.56;;;34.92;24.75
31044;BME280;17710;52.520;13.352;2023-06-22T12:16:06;101487.09;;;35.04;24.28
31044;BME280;17710;52.520;13.352;2023-06-22T12:18:33;101485.19;;;35.26;23.73
31044;BME280;17710;52.520;13.352;2023-06-22T12:20:59;101482.13;;;35.36;24.36
31044;BME280;17710;52.520;13.352;2023-06-22T12:23:25;101478.91;;;35.60;24.00
31044;BME280;17710;52.520;13.352;2023-06-22T12:25:52;101467.66;;;35.76;24.24
31044;BME280;17710;52.520;13.352;2023-06-22T12:28:18;101462.16;;;35.76;24.14
31044;BME280;17710;52.520;13.352;2023-06-22T12:30:46;101463.66;;;35.51;24.27
31044;BME280;17710;52.520;13.352;2023-06-22T12:33:12;101452.47;;;35.25;24.05
31044;BME280;17710;52.520;13.352;2023-06-22T12:35:38;101446.88;;;35.18;24.11
31044;BME280;17710;52.520;13.352;2023-06-22T12:38:05;101449.09;;;35.08;24.24
31044;BME280;17710;52.520;13.352;2023-06-22T12:40:33;101452.34;;;35.39;24.55
31044;BME280;17710;52.520;13.352;2023-06-22T12:42:59;101450.91;;;35.43;24.88
31044;BME280;17710;52.520;13.352;2023-06-22T12:45:27;101447.44;;;35.35;24.45
31044;BME280;17710;52.520;13.352;2023-06-22T12:47:58;101456.09;;;35.60;24.26
31044;BME280;17710;52.520;13.352;2023-06-22T12:50:25;101434.50;;;35.91;23.59
31044;BME280;17710;52.520;13.352;2023-06-22T12:52:51;101428.69;;;36.07;23.13
31044;BME280;17710;52.520;13.352;2023-06-22T12:55:17;101426.13;;;36.53;23.17
31044;BME280;17710;52.520;13.352;2023-06-22T12:57:44;101430.13;;;35.97;23.39